LFBC 120530Z AUTO 29007KT 9999 SCT035/// BKN043/// BKN058/// ///TCU 12/07 Q1013
LFBD 120530Z AUTO 24008KT 9999 ///TCU 07/07 Q1012 TEMPO 4000 -SHRA